sensor_id;sensor_type;location;lat;lon;timestamp;pressure;altitude;pressure_sealevel;temperature;humidity
65997;BME280;52765;52.258;21.052;2023-06-24T00:01:28;100690.28;;;19.82;76.86
65997;BME280;52765;52.258;21.052;2023-06-24T00:03:54;100692.19;;;19.81;77.32
65997;BME280;52765;52.258;21.052;2023-06-24T00:06:20;100688.00;;;19.78;77.23
65997;BME280;52765;52.258;21.052;2023-06-24T00:08:48;100681.66;;;19.85;77.38
65997;BME280;52765;52.258;21.052;2023-06-24T00:11:13;100682.75;;;19.84;77.02
65997;BME280;52765;52.258;21.052;2023-06-24T00:13:40;100683.78;;;19.83;77.05
65997;BME280;52765;52.258;21.052;2023-06-24T00:16:06;100677.28;;;19.84;76.97
65997;BME280;52765;52.258;21.052;2023-06-24T00:18:32;100675.78;;;19.88;76.73
65997;BME280;52765;52.258;21.052;2023-06-24T00:21:02;100686.72;;;19.88;76.29
65997;BME280;52765;52.258;21.052;2023-06-24T00:23:28;100688.84;;;19.92;76.60
65997;BME280;52765;52.258;21.052;2023-06-24T00:25:56;100701.47;;;19.93;76.48
65997;BME280;52765;52.258;21.052;2023-06-24T00:28:22;100692.19;;;19.94;76.92
65997;BME280;52765;52.258;21.052;2023-06-24T00:30:49;100705.25;;;19.99;76.94
65997;BME280;52765;52.258;21.052;2023-06-24T00:33:20;100698.72;;;20.00;76.47
65997;BME280;52765;52.258;21.052;2023-06-24T00:35:47;100695.53;;;19.96;76.54
65997;BME280;52765;52.258;21.052;2023-06-24T00:38:13;100694.09;;;19.94;76.71
65997;BME280;52765;52.258;21.052;2023-06-24T00:40:39;100694.09;;;19.94;76.64
65997;BME280;52765;52.258;21.052;2023-06-24T00:43:06;100705.03;;;19.94;76.23
65997;BME280;52765;52.258;21.052;2023-06-24T00:45:32;100708.81;;;19.93;76.54
65997;BME280;52765;52.258;21.052;2023-06-24T00:47:58;100722.25;;;19.94;76.59
65997;BME280;52765;52.258;21.052;2023-06-24T00:50:27;100717.00;;;19.93;76.50
65997;BME280;52765;52.258;21.052;2023-06-24T00:52:56;100713.84;;;19.96;77.09
65997;BME280;52765;52.258;21.052;2023-06-24T00:55:22;100711.31;;;19.94;77.93
65997;BME280;52765;52.258;21.052;2023-06-24T00:57:51;100714.88;;;19.88;78.10
65997;BME280;52765;52.258;21.052;2023-06-24T01:00:20;100713.44;;;19.86;78.41
65997;BME280;52765;52.258;21.052;2023-06-24T01:02:49;100725.19;;;19.86;78.43
65997;BME280;52765;52.258;21.052;2023-06-24T01:05:15;100727.94;;;19.80;78.71
65997;BME280;52765;52.258;21.052;2023-06-24T01:07:52;100719.91;;;19.71;78.65
65997;BME280;52765;52.258;21.052;2023-06-24T01:10:24;100736.34;;;19.78;78.41
65997;BME280;52765;52.258;21.052;2023-06-24T01:12:53;100744.75;;;19.76;78.84
65997;BME280;52765;52.258;21.052;2023-06-24T01:15:20;100739.69;;;19.73;78.21
65997;BME280;52765;52.258;21.052;2023-06-24T01:18:07;100740.34;;;19.82;78.23
65997;BME280;52765;52.258;21.052;2023-06-24T01:20:51;100741.59;;;19.86;78.09
65997;BME280;52765;52.258;21.052;2023-06-24T01:34:41;100747.00;;;19.59;79.76
65997;BME280;52765;52.258;21.052;2023-06-24T01:38:03;100753.72;;;19.57;79.46
65997;BME280;52765;52.258;21.052;2023-06-24T01:40:12;100745.94;;;19.54;79.66
65997;BME280;52765;52.258;21.052;2023-06-24T01:42:42;100746.78;;;19.54;79.26
65997;BME280;52765;52.258;21.052;2023-06-24T01:45:29;100745.53;;;19.57;79.63
65997;BME280;52765;52.258;21.052;2023-06-24T01:48:04;100751.00;;;19.57;79.76
65997;BME280;52765;52.258;21.052;2023-06-24T01:50:33;100747.59;;;19.48;79.70
65997;BME280;52765;52.258;21.052;2023-06-24T01:53:04;100740.88;;;19.44;80.44
65997;BME280;52765;52.258;21.052;2023-06-24T01:55:32;100737.06;;;19.32;80.14
65997;BME280;52765;52.258;21.052;2023-06-24T01:58:01;100739.78;;;19.32;80.38
65997;BME280;52765;52.258;21.052;2023-06-24T02:00:28;100740.59;;;19.26;79.96
65997;BME280;52765;52.258;21.052;2023-06-24T02:02:54;100755.72;;;19.28;79.72
65997;BME280;52765;52.258;21.052;2023-06-24T02:05:21;100745.19;;;19.25;80.06
65997;BME280;52765;52.258;21.052;2023-06-24T02:07:48;100747.94;;;19.25;79.66
65997;BME280;52765;52.258;21.052;2023-06-24T02:10:15;100739.50;;;19.20;80.11
65997;BME280;52765;52.258;21.052;2023-06-24T02:12:44;100751.91;;;19.16;80.15
65997;BME280;52765;52.258;21.052;2023-06-24T02:15:10;100771.63;;;19.11;80.80
65997;BME280;52765;52.258;21.052;2023-06-24T02:17:37;100771.81;;;19.10;80.91
65997;BME280;52765;52.258;21.052;2023-06-24T02:20:06;100784.22;;;19.06;81.31
65997;BME280;52765;52.258;21.052;2023-06-24T02:22:34;100781.66;;;18.97;82.03
65997;BME280;52765;52.258;21.052;2023-06-24T02:25:02;100779.13;;;18.96;81.97
65997;BME280;52765;52.258;21.052;2023-06-24T02:27:28;100772.59;;;18.90;82.48
65997;BME280;52765;52.258;21.052;2023-06-24T02:29:55;100771.09;;;18.88;82.77
65997;BME280;52765;52.258;21.052;2023-06-24T02:32:21;100778.72;;;18.99;82.39
65997;BME280;52765;52.258;21.052;2023-06-24T02:34:47;100779.34;;;19.01;82.14
65997;BME280;52765;52.258;21.052;2023-06-24T02:37:12;100779.34;;;19.01;82.44
65997;BME280;52765;52.258;21.052;2023-06-24T02:39:38;100782.50;;;19.04;82.41
65997;BME280;52765;52.258;21.052;2023-06-24T02:42:10;100781.31;;;19.14;82.02
65997;BME280;52765;52.258;21.052;2023-06-24T02:44:35;100788.44;;;19.15;82.10
65997;BME280;52765;52.258;21.052;2023-06-24T02:47:01;100780.03;;;19.16;82.15
65997;BME280;52765;52.258;21.052;2023-06-24T02:49:27;100786.81;;;19.20;82.08
65997;BME280;52765;52.258;21.052;2023-06-24T02:51:53;100789.53;;;19.20;82.11
65997;BME280;52765;52.258;21.052;2023-06-24T02:54:19;100787.22;;;19.17;82.85
65997;BME280;52765;52.258;21.052;2023-06-24T02:56:45;100778.78;;;19.12;83.22
65997;BME280;52765;52.258;21.052;2023-06-24T02:59:11;100777.91;;;19.12;83.40
65997;BME280;52765;52.258;21.052;2023-06-24T03:01:38;100789.47;;;19.07;84.10
65997;BME280;52765;52.258;21.052;2023-06-24T03:04:11;100792.19;;;19.07;84.37
65997;BME280;52765;52.258;21.052;2023-06-24T03:06:37;100792.59;;;19.04;85.04
65997;BME280;52765;52.258;21.052;2023-06-24T03:09:05;100790.50;;;19.06;85.05
65997;BME280;52765;52.258;21.052;2023-06-24T03:11:31;100804.72;;;18.95;85.88
65997;BME280;52765;52.258;21.052;2023-06-24T03:13:56;100807.06;;;18.98;86.24
65997;BME280;52765;52.258;21.052;2023-06-24T03:16:22;100810.66;;;19.05;85.66
65997;BME280;52765;52.258;21.052;2023-06-24T03:18:47;100812.94;;;19.01;86.39
65997;BME280;52765;52.258;21.052;2023-06-24T03:21:13;100806.84;;;18.99;86.15
65997;BME280;52765;52.258;21.052;2023-06-24T03:23:39;100812.31;;;18.99;86.43
65997;BME280;52765;52.258;21.052;2023-06-24T03:26:05;100812.53;;;19.04;86.40
65997;BME280;52765;52.258;21.052;2023-06-24T03:28:32;100821.16;;;19.08;86.29
65997;BME280;52765;52.258;21.052;2023-06-24T03:30:58;100812.94;;;19.01;86.88
65997;BME280;52765;52.258;21.052;2023-06-24T03:33:24;100818.25;;;19.10;86.57
65997;BME280;52765;52.258;21.052;2023-06-24T03:35:52;100819.53;;;19.14;86.39
65997;BME280;52765;52.258;21.052;2023-06-24T03:38:17;100817.41;;;19.09;86.64
65997;BME280;52765;52.258;21.052;2023-06-24T03:40:43;100830.38;;;19.00;88.08
65997;BME280;52765;52.258;21.052;2023-06-24T03:43:09;100823.91;;;19.08;87.53
65997;BME280;52765;52.258;21.052;2023-06-24T03:45:35;100825.00;;;19.14;87.10
65997;BME280;52765;52.258;21.052;2023-06-24T03:48:00;100823.53;;;19.18;87.16
65997;BME280;52765;52.258;21.052;2023-06-24T03:50:26;100829.63;;;19.20;87.62
65997;BME280;52765;52.258;21.052;2023-06-24T03:52:52;100830.91;;;19.17;87.94
65997;BME280;52765;52.258;21.052;2023-06-24T03:55:17;100835.97;;;19.20;87.81
65997;BME280;52765;52.258;21.052;2023-06-24T03:57:46;100834.28;;;19.26;87.54
65997;BME280;52765;52.258;21.052;2023-06-24T04:00:12;100837.03;;;19.26;87.64
65997;BME280;52765;52.258;21.052;2023-06-24T04:02:44;100833.06;;;19.29;87.79
65997;BME280;52765;52.258;21.052;2023-06-24T04:05:10;100845.06;;;19.34;87.89
65997;BME280;52765;52.258;21.052;2023-06-24T04:07:36;100841.13;;;19.44;87.25
65997;BME280;52765;52.258;21.052;2023-06-24T04:10:05;100837.97;;;19.53;87.04
65997;BME280;52765;52.258;21.052;2023-06-24T04:12:34;100842.41;;;19.54;86.99
65997;BME280;52765;52.258;21.052;2023-06-24T04:15:01;100830.44;;;19.55;86.64
65997;BME280;52765;52.258;21.052;2023-06-24T04:17:28;100830.63;;;19.47;86.99
65997;BME280;52765;52.258;21.052;2023-06-24T04:19:54;100837.34;;;19.51;87.02
65997;BME280;52765;52.258;21.052;2023-06-24T04:22:19;100838.84;;;19.54;87.17
65997;BME280;52765;52.258;21.052;2023-06-24T04:24:45;100848.97;;;19.67;86.77
65997;BME280;52765;52.258;21.052;2023-06-24T04:27:10;100831.75;;;19.73;86.47
65997;BME280;52765;52.258;21.052;2023-06-24T04:29:36;100831.94;;;19.71;87.25
65997;BME280;52765;52.258;21.052;2023-06-24T04:32:02;100841.28;;;19.84;86.48
65997;BME280;52765;52.258;21.052;2023-06-24T04:34:30;100836.47;;;19.92;85.29
65997;BME280;52765;52.258;21.052;2023-06-24T04:36:57;100841.53;;;20.02;84.85
65997;BME280;52765;52.258;21.052;2023-06-24T04:39:23;100832.47;;;20.08;84.47
65997;BME280;52765;52.258;21.052;2023-06-24T04:41:48;100834.59;;;20.13;84.52
65997;BME280;52765;52.258;21.052;2023-06-24T04:44:14;100841.16;;;20.19;83.59
65997;BME280;52765;52.258;21.052;2023-06-24T04:46:40;100832.53;;;20.22;83.18
65997;BME280;52765;52.258;21.052;2023-06-24T04:49:06;100833.16;;;20.30;82.15
65997;BME280;52765;52.258;21.052;2023-06-24T04:51:31;100835.69;;;20.32;81.13
65997;BME280;52765;52.258;21.052;2023-06-24T04:53:57;100829.56;;;20.30;81.46
65997;BME280;52765;52.258;21.052;2023-06-24T04:56:23;100840.94;;;20.33;81.26
65997;BME280;52765;52.258;21.052;2023-06-24T04:58:50;100839.25;;;20.39;81.61
65997;BME280;52765;52.258;21.052;2023-06-24T05:01:15;100840.75;;;20.48;80.83
65997;BME280;52765;52.258;21.052;2023-06-24T05:03:41;100840.31;;;20.51;80.76
65997;BME280;52765;52.258;21.052;2023-06-24T05:06:06;100830.22;;;20.59;79.99
65997;BME280;52765;52.258;21.052;2023-06-24T05:08:32;100832.31;;;20.57;79.99
65997;BME280;52765;52.258;21.052;2023-06-24T05:11:04;100834.63;;;20.60;80.20
65997;BME280;52765;52.258;21.052;2023-06-24T05:13:31;100838.25;;;20.67;79.71
65997;BME280;52765;52.258;21.052;2023-06-24T05:15:59;100852.34;;;20.77;79.25
65997;BME280;52765;52.258;21.052;2023-06-24T05:18:25;100859.91;;;20.88;78.14
65997;BME280;52765;52.258;21.052;2023-06-24T05:20:50;100859.03;;;20.95;77.37
65997;BME280;52765;52.258;21.052;2023-06-24T05:23:16;100860.72;;;21.02;76.46
65997;BME280;52765;52.258;21.052;2023-06-24T05:25:41;100861.75;;;21.08;75.50
65997;BME280;52765;52.258;21.052;2023-06-24T05:28:07;100863.03;;;21.12;74.43
65997;BME280;52765;52.258;21.052;2023-06-24T05:30:32;100859.19;;;21.20;74.67
65997;BME280;52765;52.258;21.052;2023-06-24T05:32:58;100865.31;;;21.29;73.83
65997;BME280;52765;52.258;21.052;2023-06-24T05:35:25;100866.13;;;21.29;73.64
65997;BME280;52765;52.258;21.052;2023-06-24T05:37:50;100874.53;;;21.41;73.73
65997;BME280;52765;52.258;21.052;2023-06-24T05:40:16;100875.59;;;21.53;73.31
65997;BME280;52765;52.258;21.052;2023-06-24T05:42:41;100879.34;;;21.59;72.14
65997;BME280;52765;52.258;21.052;2023-06-24T05:45:08;100884.41;;;21.62;72.01
65997;BME280;52765;52.258;21.052;2023-06-24T05:47:33;100875.97;;;21.64;71.28
65997;BME280;52765;52.258;21.052;2023-06-24T05:49:59;100887.00;;;21.50;72.14
65997;BME280;52765;52.258;21.052;2023-06-24T05:52:25;100892.00;;;21.60;72.48
65997;BME280;52765;52.258;21.052;2023-06-24T05:54:51;100886.94;;;21.64;71.93
65997;BME280;52765;52.258;21.052;2023-06-24T05:57:17;100897.44;;;21.73;71.58
65997;BME280;52765;52.258;21.052;2023-06-24T05:59:43;100890.41;;;21.84;70.88
65997;BME280;52765;52.258;21.052;2023-06-24T06:02:09;100887.44;;;21.92;70.17
65997;BME280;52765;52.258;21.052;2023-06-24T06:04:52;100894.25;;;21.76;71.90
65997;BME280;52765;52.258;21.052;2023-06-24T06:07:18;100894.88;;;21.78;71.49
65997;BME280;52765;52.258;21.052;2023-06-24T06:09:44;100900.56;;;21.84;71.33
65997;BME280;52765;52.258;21.052;2023-06-24T06:12:10;100898.78;;;21.96;70.87
65997;BME280;52765;52.258;21.052;2023-06-24T06:14:43;100898.53;;;22.04;70.67
65997;BME280;52765;52.258;21.052;2023-06-24T06:17:09;100901.06;;;22.06;70.12
65997;BME280;52765;52.258;21.052;2023-06-24T06:19:35;100888.88;;;22.02;69.35
65997;BME280;52765;52.258;21.052;2023-06-24T06:22:00;100889.03;;;22.07;69.94
65997;BME280;52765;52.258;21.052;2023-06-24T06:24:26;100902.50;;;22.15;68.82
65997;BME280;52765;52.258;21.052;2023-06-24T06:26:51;100893.22;;;22.09;69.43
65997;BME280;52765;52.258;21.052;2023-06-24T06:29:17;100900.88;;;22.01;69.67
65997;BME280;52765;52.258;21.052;2023-06-24T06:31:42;100891.59;;;22.02;70.12
65997;BME280;52765;52.258;21.052;2023-06-24T06:34:08;100893.44;;;22.08;69.19
65997;BME280;52765;52.258;21.052;2023-06-24T06:36:34;100902.69;;;22.20;68.97
65997;BME280;52765;52.258;21.052;2023-06-24T06:38:59;100897.13;;;22.33;68.54
65997;BME280;52765;52.258;21.052;2023-06-24T06:41:24;100890.19;;;22.31;67.16
65997;BME280;52765;52.258;21.052;2023-06-24T06:43:51;100895.22;;;22.34;68.21
65997;BME280;52765;52.258;21.052;2023-06-24T06:46:17;100895.53;;;22.51;66.33
65997;BME280;52765;52.258;21.052;2023-06-24T06:48:42;100906.41;;;22.64;65.65
65997;BME280;52765;52.258;21.052;2023-06-24T06:51:08;100893.75;;;22.63;65.42
65997;BME280;52765;52.258;21.052;2023-06-24T06:53:40;100900.19;;;22.76;64.68
65997;BME280;52765;52.258;21.052;2023-06-24T06:56:05;100899.91;;;22.84;64.58
65997;BME280;52765;52.258;21.052;2023-06-24T06:58:31;100905.34;;;22.90;63.77
65997;BME280;52765;52.258;21.052;2023-06-24T07:00:56;100907.81;;;22.99;63.19
65997;BME280;52765;52.258;21.052;2023-06-24T07:03:26;100894.75;;;22.94;63.18
65997;BME280;52765;52.258;21.052;2023-06-24T07:05:53;100893.69;;;22.95;62.91
65997;BME280;52765;52.258;21.052;2023-06-24T07:08:18;100898.47;;;23.00;63.22
65997;BME280;52765;52.258;21.052;2023-06-24T07:10:50;100904.84;;;23.00;63.24
65997;BME280;52765;52.258;21.052;2023-06-24T07:13:15;100893.63;;;23.02;63.15
65997;BME280;52765;52.258;21.052;2023-06-24T07:15:40;100895.19;;;23.16;62.58
65997;BME280;52765;52.258;21.052;2023-06-24T07:18:06;100888.09;;;23.27;61.60
65997;BME280;52765;52.258;21.052;2023-06-24T07:20:40;100891.69;;;23.27;61.05
65997;BME280;52765;52.258;21.052;2023-06-24T07:23:06;100894.81;;;23.31;60.57
65997;BME280;52765;52.258;21.052;2023-06-24T07:25:34;100888.03;;;23.34;60.11
65997;BME280;52765;52.258;21.052;2023-06-24T07:28:00;100881.56;;;23.46;60.07
65997;BME280;52765;52.258;21.052;2023-06-24T07:30:25;100870.31;;;23.67;60.63
65997;BME280;52765;52.258;21.052;2023-06-24T07:32:51;100874.72;;;23.86;59.45
65997;BME280;52765;52.258;21.052;2023-06-24T07:35:16;100876.31;;;23.94;56.02
65997;BME280;52765;52.258;21.052;2023-06-24T07:37:48;100878.16;;;23.81;54.54
65997;BME280;52765;52.258;21.052;2023-06-24T07:40:14;100887.41;;;23.69;55.17
65997;BME280;52765;52.258;21.052;2023-06-24T07:42:40;100885.34;;;23.82;55.29
65997;BME280;52765;52.258;21.052;2023-06-24T07:45:06;100882.78;;;23.81;55.32
65997;BME280;52765;52.258;21.052;2023-06-24T07:47:36;100888.47;;;23.68;55.12
65997;BME280;52765;52.258;21.052;2023-06-24T07:50:04;100881.75;;;23.63;56.04
65997;BME280;52765;52.258;21.052;2023-06-24T07:52:35;100891.50;;;23.78;55.02
65997;BME280;52765;52.258;21.052;2023-06-24T07:55:04;100895.13;;;23.97;55.88
65997;BME280;52765;52.258;21.052;2023-06-24T07:57:32;100898.59;;;24.04;55.47
65997;BME280;52765;52.258;21.052;2023-06-24T08:00:03;100900.97;;;24.00;52.98
65997;BME280;52765;52.258;21.052;2023-06-24T08:02:33;100886.41;;;24.00;52.47
65997;BME280;52765;52.258;21.052;2023-06-24T08:05:19;100912.69;;;23.96;51.99
65997;BME280;52765;52.258;21.052;2023-06-24T08:07:46;100908.50;;;23.75;52.12
65997;BME280;52765;52.258;21.052;2023-06-24T08:10:13;100902.69;;;23.83;51.13
65997;BME280;52765;52.258;21.052;2023-06-24T08:12:38;100912.84;;;23.82;50.88
65997;BME280;52765;52.258;21.052;2023-06-24T08:15:04;100906.06;;;23.85;50.42
65997;BME280;52765;52.258;21.052;2023-06-24T08:17:37;100923.00;;;24.00;48.40
65997;BME280;52765;52.258;21.052;2023-06-24T08:20:03;100921.31;;;23.99;48.47
65997;BME280;52765;52.258;21.052;2023-06-24T08:22:30;100918.81;;;24.28;47.89
65997;BME280;52765;52.258;21.052;2023-06-24T08:24:58;100919.34;;;24.49;46.63
65997;BME280;52765;52.258;21.052;2023-06-24T08:27:24;100921.50;;;24.47;47.30
65997;BME280;52765;52.258;21.052;2023-06-24T08:29:50;100918.91;;;24.22;47.12
65997;BME280;52765;52.258;21.052;2023-06-24T08:32:15;100931.13;;;24.26;47.30
65997;BME280;52765;52.258;21.052;2023-06-24T08:34:41;100920.25;;;24.31;45.99
65997;BME280;52765;52.258;21.052;2023-06-24T08:37:06;100914.28;;;24.04;45.61
65997;BME280;52765;52.258;21.052;2023-06-24T08:39:32;100926.34;;;24.02;46.50
65997;BME280;52765;52.258;21.052;2023-06-24T08:41:57;100917.50;;;24.00;46.43
65997;BME280;52765;52.258;21.052;2023-06-24T08:44:23;100930.47;;;24.12;45.85
65997;BME280;52765;52.258;21.052;2023-06-24T08:46:52;100924.78;;;24.25;45.62
65997;BME280;52765;52.258;21.052;2023-06-24T08:49:28;100921.34;;;24.30;45.38
65997;BME280;52765;52.258;21.052;2023-06-24T08:52:03;100935.50;;;24.45;45.65
65997;BME280;52765;52.258;21.052;2023-06-24T08:54:30;100941.94;;;24.39;45.79
65997;BME280;52765;52.258;21.052;2023-06-24T08:56:59;100925.19;;;24.41;44.17
65997;BME280;52765;52.258;21.052;2023-06-24T08:59:27;100939.31;;;24.44;42.91
65997;BME280;52765;52.258;21.052;2023-06-24T09:01:52;100940.09;;;24.33;42.09
65997;BME280;52765;52.258;21.052;2023-06-24T09:04:18;100936.09;;;24.47;42.13
65997;BME280;52765;52.258;21.052;2023-06-24T09:06:46;100937.41;;;24.75;42.27
65997;BME280;52765;52.258;21.052;2023-06-24T09:09:22;100945.31;;;24.83;41.90
65997;BME280;52765;52.258;21.052;2023-06-24T09:11:52;100941.09;;;24.69;42.80
65997;BME280;52765;52.258;21.052;2023-06-24T09:14:19;100946.38;;;24.70;42.77
65997;BME280;52765;52.258;21.052;2023-06-24T09:16:57;100947.63;;;24.56;43.39
65997;BME280;52765;52.258;21.052;2023-06-24T09:19:24;100936.91;;;24.48;43.42
65997;BME280;52765;52.258;21.052;2023-06-24T09:22:04;100930.91;;;24.69;43.62
65997;BME280;52765;52.258;21.052;2023-06-24T09:24:31;100934.28;;;24.83;43.38
65997;BME280;52765;52.258;21.052;2023-06-24T09:26:57;100936.19;;;24.94;43.28
65997;BME280;52765;52.258;21.052;2023-06-24T09:29:31;100937.78;;;25.02;42.43
65997;BME280;52765;52.258;21.052;2023-06-24T09:32:03;100937.19;;;25.00;42.45
65997;BME280;52765;52.258;21.052;2023-06-24T09:34:29;100942.44;;;24.90;42.70
65997;BME280;52765;52.258;21.052;2023-06-24T09:36:59;100944.22;;;24.96;43.32
65997;BME280;52765;52.258;21.052;2023-06-24T09:39:26;100940.75;;;24.89;44.00
65997;BME280;52765;52.258;21.052;2023-06-24T09:41:56;100933.69;;;24.93;43.61
65997;BME280;52765;52.258;21.052;2023-06-24T09:44:22;100942.34;;;24.97;43.64
65997;BME280;52765;52.258;21.052;2023-06-24T09:46:47;100944.22;;;25.08;43.57
65997;BME280;52765;52.258;21.052;2023-06-24T09:49:16;100934.31;;;25.30;42.63
65997;BME280;52765;52.258;21.052;2023-06-24T09:51:46;100935.66;;;25.40;42.23
65997;BME280;52765;52.258;21.052;2023-06-24T09:54:14;100934.44;;;25.36;41.90
65997;BME280;52765;52.258;21.052;2023-06-24T09:56:43;100938.88;;;25.48;42.03
65997;BME280;52765;52.258;21.052;2023-06-24T09:59:18;100936.06;;;25.72;41.77
65997;BME280;52765;52.258;21.052;2023-06-24T10:01:47;100935.22;;;25.72;41.42
65997;BME280;52765;52.258;21.052;2023-06-24T10:04:17;100923.84;;;25.68;41.72
65997;BME280;52765;52.258;21.052;2023-06-24T10:06:43;100932.81;;;25.75;41.45
65997;BME280;52765;52.258;21.052;2023-06-24T10:09:09;100948.16;;;25.71;41.76
65997;BME280;52765;52.258;21.052;2023-06-24T10:11:38;100936.47;;;25.52;41.59
65997;BME280;52765;52.258;21.052;2023-06-24T10:14:06;100943.91;;;25.52;41.96
65997;BME280;52765;52.258;21.052;2023-06-24T10:16:32;100933.72;;;25.52;41.94
65997;BME280;52765;52.258;21.052;2023-06-24T10:19:01;100931.09;;;25.34;41.83
65997;BME280;52765;52.258;21.052;2023-06-24T10:21:47;100935.78;;;25.33;41.90
65997;BME280;52765;52.258;21.052;2023-06-24T10:24:13;100940.56;;;25.38;42.52
65997;BME280;52765;52.258;21.052;2023-06-24T10:26:40;100930.00;;;25.46;41.91
65997;BME280;52765;52.258;21.052;2023-06-24T10:29:09;100921.91;;;25.69;41.71
65997;BME280;52765;52.258;21.052;2023-06-24T10:37:02;100946.28;;;25.72;40.79
65997;BME280;52765;52.258;21.052;2023-06-24T10:44:53;100935.16;;;25.43;40.38
65997;BME280;52765;52.258;21.052;2023-06-24T10:47:19;100937.78;;;25.61;40.51
65997;BME280;52765;52.258;21.052;2023-06-24T10:49:48;100936.47;;;25.93;40.46
65997;BME280;52765;52.258;21.052;2023-06-24T10:52:14;100931.91;;;26.10;40.15
65997;BME280;52765;52.258;21.052;2023-06-24T10:54:41;100933.59;;;25.99;40.50
65997;BME280;52765;52.258;21.052;2023-06-24T10:57:12;100928.00;;;26.23;40.80
65997;BME280;52765;52.258;21.052;2023-06-24T10:59:47;100932.28;;;26.31;39.83
65997;BME280;52765;52.258;21.052;2023-06-24T11:02:18;100935.09;;;25.78;40.31
65997;BME280;52765;52.258;21.052;2023-06-24T11:04:48;100925.88;;;25.61;41.16
65997;BME280;52765;52.258;21.052;2023-06-24T11:07:16;100937.19;;;25.47;40.55
65997;BME280;52765;52.258;21.052;2023-06-24T11:09:54;100929.75;;;25.24;42.27
65997;BME280;52765;52.258;21.052;2023-06-24T11:12:27;100937.78;;;25.26;42.37
65997;BME280;52765;52.258;21.052;2023-06-24T11:14:57;100932.06;;;25.27;42.34
65997;BME280;52765;52.258;21.052;2023-06-24T11:17:23;100946.50;;;25.23;42.08
65997;BME280;52765;52.258;21.052;2023-06-24T11:19:49;100944.84;;;25.10;42.29
65997;BME280;52765;52.258;21.052;2023-06-24T11:22:15;100945.03;;;24.73;42.32
65997;BME280;52765;52.258;21.052;2023-06-24T11:24:44;100942.25;;;24.31;43.28
65997;BME280;52765;52.258;21.052;2023-06-24T11:27:10;100952.81;;;24.34;43.32
65997;BME280;52765;52.258;21.052;2023-06-24T11:29:35;100954.59;;;24.10;42.76
65997;BME280;52765;52.258;21.052;2023-06-24T11:32:02;100952.91;;;23.97;43.50
65997;BME280;52765;52.258;21.052;2023-06-24T11:34:28;100958.78;;;24.00;43.96
65997;BME280;52765;52.258;21.052;2023-06-24T11:36:54;100960.53;;;23.95;44.43
65997;BME280;52765;52.258;21.052;2023-06-24T11:39:21;100961.84;;;23.92;44.36
65997;BME280;52765;52.258;21.052;2023-06-24T11:42:11;100957.28;;;23.79;44.93
65997;BME280;52765;52.258;21.052;2023-06-24T11:44:43;100969.94;;;23.87;44.86
65997;BME280;52765;52.258;21.052;2023-06-24T11:47:10;100966.88;;;23.58;45.43
65997;BME280;52765;52.258;21.052;2023-06-24T11:50:02;100967.09;;;23.57;46.08
65997;BME280;52765;52.258;21.052;2023-06-24T11:52:48;100968.16;;;23.56;45.96
65997;BME280;52765;52.258;21.052;2023-06-24T11:55:22;100961.06;;;23.67;45.66
65997;BME280;52765;52.258;21.052;2023-06-24T11:57:53;100976.00;;;23.52;46.29
65997;BME280;52765;52.258;21.052;2023-06-24T12:00:27;100971.25;;;23.41;46.23
65997;BME280;52765;52.258;21.052;2023-06-24T12:02:54;100966.59;;;23.41;46.63
65997;BME280;52765;52.258;21.052;2023-06-24T12:05:25;100967.47;;;23.42;46.35
65997;BME280;52765;52.258;21.052;2023-06-24T12:07:58;100969.91;;;23.50;46.06
65997;BME280;52765;52.258;21.052;2023-06-24T12:10:24;100965.69;;;23.48;46.09
65997;BME280;52765;52.258;21.052;2023-06-24T12:12:50;100965.03;;;23.71;46.26
65997;BME280;52765;52.258;21.052;2023-06-24T12:15:18;100970.31;;;23.91;46.01
65997;BME280;52765;52.258;21.052;2023-06-24T12:17:43;100966.59;;;23.85;45.81
65997;BME280;52765;52.258;21.052;2023-06-24T12:20:09;100972.16;;;23.97;45.90
65997;BME280;52765;52.258;21.052;2023-06-24T12:22:36;100971.06;;;23.98;46.25
65997;BME280;52765;52.258;21.052;2023-06-24T12:25:01;100972.38;;;23.95;46.11
65997;BME280;52765;52.258;21.052;2023-06-24T12:27:27;100981.22;;;23.79;47.15
65997;BME280;52765;52.258;21.052;2023-06-24T12:29:53;100971.56;;;23.70;47.25
65997;BME280;52765;52.258;21.052;2023-06-24T12:32:22;100981.66;;;23.57;47.82
65997;BME280;52765;52.258;21.052;2023-06-24T12:34:47;100979.50;;;23.41;48.24
65997;BME280;52765;52.258;21.052;2023-06-24T12:37:13;100974.69;;;23.36;47.45
65997;BME280;52765;52.258;21.052;2023-06-24T12:39:38;100963.63;;;23.43;47.48
65997;BME280;52765;52.258;21.052;2023-06-24T12:42:04;100974.53;;;23.50;47.72
65997;BME280;52765;52.258;21.052;2023-06-24T12:44:31;100978.16;;;23.50;47.66
65997;BME280;52765;52.258;21.052;2023-06-24T12:46:57;100981.81;;;23.62;47.11
65997;BME280;52765;52.258;21.052;2023-06-24T12:49:22;100966.72;;;23.53;46.66
65997;BME280;52765;52.258;21.052;2023-06-24T12:51:48;100969.91;;;23.69;46.89
65997;BME280;52765;52.258;21.052;2023-06-24T12:54:13;100970.00;;;23.99;46.47
65997;BME280;52765;52.258;21.052;2023-06-24T12:56:39;100971.06;;;24.16;46.44
65997;BME280;52765;52.258;21.052;2023-06-24T12:59:04;100968.78;;;24.44;45.97
65997;BME280;52765;52.258;21.052;2023-06-24T13:01:31;100968.16;;;24.42;45.76
65997;BME280;52765;52.258;21.052;2023-06-24T13:03:56;100974.28;;;24.74;45.21
65997;BME280;52765;52.258;21.052;2023-06-24T13:06:29;100965.78;;;24.87;45.03